createdAt,value
2023-01-29T20:00:01.180Z,5.07
2023-01-29T20:03:28.833Z,4.55
2023-01-29T20:05:32.918Z,4.13
2023-01-29T20:07:36.728Z,4.18
2023-01-29T20:09:41.295Z,3.20
2023-01-29T20:11:45.169Z,4.50
2023-01-29T20:13:49.781Z,4.38
2023-01-29T20:15:53.807Z,3.63
2023-01-29T20:17:58.705Z,4.80
2023-01-29T20:20:04.099Z,3.25
2023-01-29T20:22:07.955Z,4.07
2023-01-29T20:24:13.017Z,4.55
2023-01-29T20:26:17.436Z,3.47
2023-01-29T20:28:21.295Z,4.13
2023-01-29T20:30:25.197Z,4.00
2023-01-29T20:32:29.695Z,3.20
2023-01-29T20:34:33.526Z,4.10
2023-01-29T20:36:38.712Z,3.88
2023-01-29T20:38:42.597Z,4.22
2023-01-29T20:40:46.380Z,4.32
2023-01-29T20:45:35.963Z,5.00
2023-01-29T20:47:40.032Z,4.75
2023-01-29T20:49:43.960Z,5.20
2023-01-29T20:51:47.821Z,5.35
2023-01-29T20:53:51.782Z,5.13
2023-01-29T20:55:55.784Z,5.68
2023-01-29T20:58:06.546Z,4.93
2023-01-29T21:00:13.130Z,5.47
2023-01-29T21:02:18.576Z,5.05
2023-01-29T21:04:22.713Z,6.40
2023-01-29T21:06:29.321Z,5.82
2023-01-29T21:08:33.451Z,7.38
2023-01-29T21:10:37.294Z,6.65
2023-01-29T21:12:41.142Z,10.32
2023-01-29T21:14:45.033Z,11.60
2023-01-29T21:16:48.948Z,10.10
2023-01-29T21:18:56.622Z,10.25
2023-01-29T21:21:00.428Z,8.18
2023-01-29T21:23:06.967Z,7.25
2023-01-29T21:25:11.346Z,7.30
2023-01-29T21:27:15.207Z,5.93
2023-01-29T21:29:19.100Z,5.65
2023-01-29T21:31:23.051Z,5.60
2023-01-29T21:33:26.936Z,6.30
2023-01-29T21:35:32.650Z,6.95
2023-01-29T21:37:38.437Z,6.13
2023-01-29T21:39:42.309Z,5.68
2023-01-29T21:42:04.690Z,5.35
2023-01-29T21:44:08.821Z,5.30
2023-01-29T21:46:12.682Z,6.03
2023-01-29T21:48:16.567Z,5.93
2023-01-29T21:50:20.688Z,5.32
2023-01-29T21:52:25.979Z,5.47
2023-01-29T21:54:31.120Z,5.35
2023-01-29T21:56:34.954Z,5.47
2023-01-29T21:58:38.793Z,5.35
2023-01-29T22:00:42.614Z,5.15
2023-01-29T22:02:46.753Z,5.43
2023-01-29T22:04:52.228Z,4.75
2023-01-29T22:06:56.175Z,5.15
2023-01-29T22:09:01.480Z,4.82
2023-01-29T22:11:07.065Z,4.60
2023-01-29T22:13:11.174Z,4.88
2023-01-29T22:15:15.297Z,5.18
2023-01-29T22:17:20.125Z,5.32
2023-01-29T22:19:25.129Z,5.32
2023-01-29T22:21:28.952Z,5.47
2023-01-29T22:23:32.998Z,4.32
2023-01-29T22:25:38.184Z,4.30
2023-01-29T22:27:41.990Z,5.10
2023-01-29T22:29:45.828Z,4.30
2023-01-29T22:31:49.630Z,4.88
2023-01-29T22:33:54.047Z,5.40
2023-01-29T22:35:57.876Z,4.45
2023-01-29T22:38:01.722Z,5.10
2023-01-29T22:40:06.787Z,4.90
2023-01-29T22:42:11.920Z,4.88
2023-01-29T22:44:15.809Z,4.35
2023-01-29T22:46:19.651Z,4.95
2023-01-29T22:48:24.160Z,4.32
2023-01-29T22:50:28.027Z,3.95
2023-01-29T22:52:38.319Z,4.70
2023-01-29T22:54:43.290Z,4.60
2023-01-29T22:56:47.178Z,5.85
2023-01-29T22:58:52.774Z,4.45
2023-01-29T23:00:56.603Z,4.88
2023-01-29T23:03:00.583Z,4.22
2023-01-29T23:05:04.771Z,4.68
2023-01-29T23:07:08.569Z,4.95
2023-01-29T23:09:12.399Z,5.00
2023-01-29T23:11:19.823Z,4.72
2023-01-29T23:13:23.626Z,4.32
2023-01-29T23:15:29.185Z,4.82
2023-01-29T23:17:33.066Z,4.65
2023-01-29T23:19:36.860Z,4.15
2023-01-29T23:21:40.874Z,4.68
2023-01-29T23:23:45.231Z,4.00
2023-01-29T23:26:06.497Z,5.53
2023-01-29T23:28:10.374Z,4.43
2023-01-29T23:30:14.919Z,4.80
2023-01-29T23:32:21.544Z,4.05
2023-01-29T23:34:25.444Z,4.57
2023-01-29T23:36:29.313Z,4.35
2023-01-29T23:38:33.204Z,4.47
2023-01-29T23:40:37.020Z,4.50
2023-01-29T23:42:40.832Z,4.38
2023-01-29T23:44:44.672Z,3.97
2023-01-29T23:46:48.841Z,4.00
2023-01-29T23:48:54.052Z,4.05
2023-01-29T23:50:57.858Z,4.97
2023-01-29T23:53:01.685Z,4.00
2023-01-29T23:55:06.710Z,4.70
2023-01-29T23:57:10.527Z,4.18
2023-01-29T23:59:15.057Z,4.75
